Monday, September 22, 2014
08:18 UTC
  |  Log In   |  Register Free
Airport Search:

New Richmond Regional Airport
(KRNH)

New Richmond Regional Airport Diagram
No Airport Diagram Available

FAA data valid effective September 18, 2014 - November 13, 2014 (unless otherwise noted).

 
 
 
 
 
 
 
 
 
 
 
 
 
 

Current Aviation Weather for New Richmond Regional Airport (KRNH)

The most recent METAR observation for KRNH was updated at: 0813
METAR Summary (Translated METAR)
KRNH
220755Z AUTO 22003KT 1 1/2SM BR VV007 07/07 A3022 RMK AO2 T00670067
KOEO
220755Z AUTO 00000KT 10SM CLR 06/06 A3024 RMK AO2 T00600060
(11.6 nm NW from KRNH)
KSTP
220753Z AUTO 00000KT 10SM CLR 09/09 A3023 RMK AO2 SLP235 T00940094
(25.5 nm SW from KRNH)
TAF Summary (Translated TAF)
KRNH
220520Z 2206/2306 VRB03KT P6SM SKC FM221000 VRB03KT 4SM BR SKC FM221300 25006KT P6SM SKC FM230100 20002KT P6SM SKC
  Airport Weather Conditions for KRNH

 Current Weather at RNH
44° F
Fog/Mist
Southwest winds at 3.5 mph
RNH NOAA Radar

Pressure: 30.22 in
Humidity: 100%
Wind: Southwest at 3.5 MPH (3 KT)
Dew Point: 44.1°F
Visibility: 1.50 mi


Airport Weather Forecast for KRNH

Translated METAR and TAF for KRNH
Translated METAR for KRNH (0812 UTC 22 September 2014)
found at http://aviationweather.gov/adds/metars/
 
METAR text: KRNH 220755Z AUTO 22003KT 1 1/2SM BR VV007 07/07 A3022 RMK AO2 T00670067
Conditions at: KRNH (NEW RICHMOND MUN, WI, US) observed 0755 UTC 22 September 2014
Temperature: 6.7°C (44°F)
Dewpoint: 6.7°C (44°F) [RH = 100%]
Pressure (altimeter): 30.22 inches Hg (1023.5 mb)
Winds: from the SW (220 degrees) at 3 MPH (3 knots; 1.6 m/s)
Visibility: 1.50 miles (2.41 km)
Ceiling: indefinite ceiling with vertical visibility of 700 feet AGL
Clouds: obscured sky
Weather: BR  (mist)
Translated TAF for KRNH
Forecast for: KRNH (NEW RICHMOND MUN, WI, US)
TAF Text: KRNH 220809Z 2208/2306 VRB03KT 4SM BR SCT005
Forecast period: 0800 to 1300 UTC 22 September 2014
Forecast type: FROM: standard forecast or significant change
Winds: variable direction winds at 3 MPH (3 knots; 1.6 m/s)
Visibility: 4 miles (6 km)
Clouds: scattered clouds at 500 feet AGL
Weather: BR  (mist)
TAF Text: TEMPO 2208/2212 1SM BR BKN005
Forecast period: 0800 to 1200 UTC 22 September 2014
Forecast type: TEMPORARY: The following changes expected for less than half the time period
Visibility: 1.00 miles (1.61 km)
Ceiling: 500 feet AGL
Clouds: broken clouds at 500 feet AGL
Weather: BR  (mist)
TAF Text: FM221300 25006KT P6SM SKC
Forecast period: 1300 UTC 22 September 2014 to 0100 UTC 23 September 2014
Forecast type: FROM: standard forecast or significant change
Winds: from the WSW (250 degrees) at 7 MPH (6 knots; 3.1 m/s)
Visibility: 6 or more miles (10+ km)
Clouds: clear skies
Weather: no significant weather forecast for this period
TAF Text: FM230100 20002KT P6SM SKC
Forecast period: 0100 to 0600 UTC 23 September 2014
Forecast type: FROM: standard forecast or significant change
Winds: from the SSW (200 degrees) at 2 MPH (2 knots; 1.0 m/s)
Visibility: 6 or more miles (10+ km)
Clouds: clear skies
Weather: no significant weather forecast for this period

Find All Airport Services Find A Hotel Find A Rental Car Find A Golf Course Find A Restaurant $100 Hamburger



FBO's on the Field
FBO Company Facility Photos Services Transportation Aviation Fuel Prices: Prices include tax
Catering Weather Repair Courtesy Rental Type 100LL JetA JetA+ MOGAS 8087
 
Griggs Aviation

This FBO has not yet been rated
FS:Independent
Last Updated: Sep-17
Login to update fuel prices
SS:
Contact Griggs AviationMore FBO Information
 
Add another FBO Facility Photos Catering Weather Repair Courtesy Rental Type 100LL JetA JetA+ MOGAS 8087
Services Transportation Aviation Fuel Prices: Prices include tax


model-print
model-print
model-print
model-print